sensor_id;sensor_type;location;lat;lon;timestamp;P1;P2;P0
75385;PMS5003;64239;55.012;73.474;2023-05-21T00:01:22;39.00;32.00;20.00
75385;PMS5003;64239;55.012;73.474;2023-05-21T00:03:48;36.25;31.00;20.75
75385;PMS5003;64239;55.012;73.474;2023-05-21T00:06:15;37.00;30.00;19.00
75385;PMS5003;64239;55.012;73.474;2023-05-21T00:08:41;35.25;29.00;19.50
75385;PMS5003;64239;55.012;73.474;2023-05-21T00:11:07;35.25;29.00;19.75
75385;PMS5003;64239;55.012;73.474;2023-05-21T00:13:33;37.00;31.00;20.00
75385;PMS5003;64239;55.012;73.474;2023-05-21T00:15:59;36.25;30.25;19.50
75385;PMS5003;64239;55.012;73.474;2023-05-21T00:18:25;37.25;30.00;20.00
75385;PMS5003;64239;55.012;73.474;2023-05-21T00:20:51;34.00;28.50;19.00
75385;PMS5003;64239;55.012;73.474;2023-05-21T00:23:17;34.50;29.00;19.00
75385;PMS5003;64239;55.012;73.474;2023-05-21T00:25:44;34.25;29.50;19.25
75385;PMS5003;64239;55.012;73.474;2023-05-21T00:28:11;37.00;30.00;19.50
75385;PMS5003;64239;55.012;73.474;2023-05-21T00:30:37;35.00;29.00;19.00
75385;PMS5003;64239;55.012;73.474;2023-05-21T00:33:04;34.50;28.75;19.00
75385;PMS5003;64239;55.012;73.474;2023-05-21T00:35:30;34.00;28.75;20.00
75385;PMS5003;64239;55.012;73.474;2023-05-21T00:37:56;32.75;28.75;18.00
75385;PMS5003;64239;55.012;73.474;2023-05-21T00:40:22;36.00;28.75;18.00
75385;PMS5003;64239;55.012;73.474;2023-05-21T00:42:48;35.00;28.50;19.00
75385;PMS5003;64239;55.012;73.474;2023-05-21T00:45:14;33.75;28.00;18.00
75385;PMS5003;64239;55.012;73.474;2023-05-21T00:47:40;31.75;27.50;18.25
75385;PMS5003;64239;55.012;73.474;2023-05-21T00:50:07;34.00;28.00;18.00
75385;PMS5003;64239;55.012;73.474;2023-05-21T00:52:33;34.00;29.00;19.00
75385;PMS5003;64239;55.012;73.474;2023-05-21T00:55:06;33.50;28.00;18.25
75385;PMS5003;64239;55.012;73.474;2023-05-21T00:57:32;33.50;27.25;18.00
75385;PMS5003;64239;55.012;73.474;2023-05-21T00:59:59;31.75;26.00;17.00
75385;PMS5003;64239;55.012;73.474;2023-05-21T01:02:25;33.00;27.00;18.00
75385;PMS5003;64239;55.012;73.474;2023-05-21T01:04:54;32.00;27.00;18.00
75385;PMS5003;64239;55.012;73.474;2023-05-21T01:07:21;33.00;28.00;18.00
75385;PMS5003;64239;55.012;73.474;2023-05-21T01:09:49;32.00;26.00;17.00
75385;PMS5003;64239;55.012;73.474;2023-05-21T01:12:15;34.00;28.00;18.00
75385;PMS5003;64239;55.012;73.474;2023-05-21T01:14:42;28.00;25.00;17.00
75385;PMS5003;64239;55.012;73.474;2023-05-21T01:17:08;30.00;26.00;17.00
75385;PMS5003;64239;55.012;73.474;2023-05-21T01:19:37;30.75;26.75;17.00
75385;PMS5003;64239;55.012;73.474;2023-05-21T01:22:04;30.00;25.00;16.25
75385;PMS5003;64239;55.012;73.474;2023-05-21T01:24:30;32.00;27.00;17.00
75385;PMS5003;64239;55.012;73.474;2023-05-21T01:26:57;28.50;24.00;17.00
75385;PMS5003;64239;55.012;73.474;2023-05-21T01:29:23;29.25;25.25;17.00
75385;PMS5003;64239;55.012;73.474;2023-05-21T01:31:58;29.75;25.50;16.50
75385;PMS5003;64239;55.012;73.474;2023-05-21T01:34:34;28.00;23.75;16.00
75385;PMS5003;64239;55.012;73.474;2023-05-21T01:37:11;26.50;23.00;16.00
75385;PMS5003;64239;55.012;73.474;2023-05-21T01:39:38;29.00;24.00;16.00
75385;PMS5003;64239;55.012;73.474;2023-05-21T01:42:08;27.75;23.75;15.75
75385;PMS5003;64239;55.012;73.474;2023-05-21T01:44:35;27.25;24.00;15.75
75385;PMS5003;64239;55.012;73.474;2023-05-21T01:47:01;30.00;24.50;16.00
75385;PMS5003;64239;55.012;73.474;2023-05-21T01:49:28;27.50;23.50;15.00
75385;PMS5003;64239;55.012;73.474;2023-05-21T01:51:54;29.00;23.75;16.00
75385;PMS5003;64239;55.012;73.474;2023-05-21T01:54:20;26.75;23.00;16.00
75385;PMS5003;64239;55.012;73.474;2023-05-21T01:56:48;27.00;23.00;16.00
75385;PMS5003;64239;55.012;73.474;2023-05-21T01:59:15;26.25;22.75;14.75
75385;PMS5003;64239;55.012;73.474;2023-05-21T02:01:41;28.00;24.00;15.75
75385;PMS5003;64239;55.012;73.474;2023-05-21T02:04:07;25.50;23.00;15.50
75385;PMS5003;64239;55.012;73.474;2023-05-21T02:06:33;25.75;22.50;15.00
75385;PMS5003;64239;55.012;73.474;2023-05-21T02:09:00;27.00;23.00;15.00
75385;PMS5003;64239;55.012;73.474;2023-05-21T02:11:26;26.50;24.00;16.00
75385;PMS5003;64239;55.012;73.474;2023-05-21T02:13:53;25.75;22.50;15.00
75385;PMS5003;64239;55.012;73.474;2023-05-21T02:16:19;25.50;22.50;15.00
75385;PMS5003;64239;55.012;73.474;2023-05-21T02:18:47;25.75;22.00;14.75
75385;PMS5003;64239;55.012;73.474;2023-05-21T02:21:17;26.25;22.50;14.25
75385;PMS5003;64239;55.012;73.474;2023-05-21T02:23:47;27.00;23.00;15.00
75385;PMS5003;64239;55.012;73.474;2023-05-21T02:26:13;24.75;20.75;14.00
75385;PMS5003;64239;55.012;73.474;2023-05-21T02:28:39;24.50;21.00;14.00
75385;PMS5003;64239;55.012;73.474;2023-05-21T02:31:05;27.00;24.00;15.25
75385;PMS5003;64239;55.012;73.474;2023-05-21T02:33:31;26.00;22.25;15.00
75385;PMS5003;64239;55.012;73.474;2023-05-21T02:35:57;23.75;21.00;15.00
75385;PMS5003;64239;55.012;73.474;2023-05-21T02:38:23;23.50;21.00;14.00
75385;PMS5003;64239;55.012;73.474;2023-05-21T02:40:50;25.00;22.00;15.00
75385;PMS5003;64239;55.012;73.474;2023-05-21T02:43:16;26.75;23.00;15.50
75385;PMS5003;64239;55.012;73.474;2023-05-21T02:45:42;26.00;22.00;15.00
75385;PMS5003;64239;55.012;73.474;2023-05-21T02:48:08;25.00;21.00;14.00
75385;PMS5003;64239;55.012;73.474;2023-05-21T02:50:34;24.00;21.50;14.00
75385;PMS5003;64239;55.012;73.474;2023-05-21T02:52:59;25.00;21.75;14.25
75385;PMS5003;64239;55.012;73.474;2023-05-21T02:55:25;25.00;21.75;14.25
75385;PMS5003;64239;55.012;73.474;2023-05-21T02:57:51;24.00;21.75;15.00
75385;PMS5003;64239;55.012;73.474;2023-05-21T03:00:17;24.00;21.75;13.75
75385;PMS5003;64239;55.012;73.474;2023-05-21T03:02:43;25.00;21.00;13.00
75385;PMS5003;64239;55.012;73.474;2023-05-21T03:05:09;23.00;19.50;13.00
75385;PMS5003;64239;55.012;73.474;2023-05-21T03:07:35;24.25;21.25;14.00
75385;PMS5003;64239;55.012;73.474;2023-05-21T03:10:01;24.00;20.75;14.00
75385;PMS5003;64239;55.012;73.474;2023-05-21T03:12:27;24.00;21.00;13.25
75385;PMS5003;64239;55.012;73.474;2023-05-21T03:14:53;24.00;21.00;14.00
75385;PMS5003;64239;55.012;73.474;2023-05-21T03:17:21;24.25;20.50;14.00
75385;PMS5003;64239;55.012;73.474;2023-05-21T03:19:46;25.50;22.00;13.50
75385;PMS5003;64239;55.012;73.474;2023-05-21T03:22:13;24.75;22.00;15.00
75385;PMS5003;64239;55.012;73.474;2023-05-21T03:24:39;24.00;21.00;14.00
75385;PMS5003;64239;55.012;73.474;2023-05-21T03:27:06;24.25;20.75;14.00
75385;PMS5003;64239;55.012;73.474;2023-05-21T03:29:32;21.25;19.50;13.75
75385;PMS5003;64239;55.012;73.474;2023-05-21T03:31:59;24.50;21.00;14.00
75385;PMS5003;64239;55.012;73.474;2023-05-21T03:34:25;22.75;20.50;13.00
75385;PMS5003;64239;55.012;73.474;2023-05-21T03:36:51;21.75;19.00;12.00
75385;PMS5003;64239;55.012;73.474;2023-05-21T03:39:17;24.00;21.00;14.00
75385;PMS5003;64239;55.012;73.474;2023-05-21T03:41:43;22.75;21.00;13.00
75385;PMS5003;64239;55.012;73.474;2023-05-21T03:44:09;23.25;21.00;14.00
75385;PMS5003;64239;55.012;73.474;2023-05-21T03:46:36;20.00;18.25;13.00
75385;PMS5003;64239;55.012;73.474;2023-05-21T03:49:02;22.50;19.50;13.00
75385;PMS5003;64239;55.012;73.474;2023-05-21T03:51:28;23.00;21.00;14.00
75385;PMS5003;64239;55.012;73.474;2023-05-21T03:53:57;22.00;18.50;13.00
75385;PMS5003;64239;55.012;73.474;2023-05-21T03:56:23;21.25;19.00;14.00
75385;PMS5003;64239;55.012;73.474;2023-05-21T03:58:49;21.00;19.00;13.00
75385;PMS5003;64239;55.012;73.474;2023-05-21T04:01:15;25.00;21.75;14.00
75385;PMS5003;64239;55.012;73.474;2023-05-21T16:23:57;50.25;41.00;27.25
75385;PMS5003;64239;55.012;73.474;2023-05-21T16:26:23;63.50;51.00;34.50
75385;PMS5003;64239;55.012;73.474;2023-05-21T16:28:50;64.25;51.75;35.50
75385;PMS5003;64239;55.012;73.474;2023-05-21T16:31:16;74.75;61.50;41.00
75385;PMS5003;64239;55.012;73.474;2023-05-21T16:33:42;63.75;50.50;33.50
75385;PMS5003;64239;55.012;73.474;2023-05-21T16:36:08;65.50;51.75;33.75
75385;PMS5003;64239;55.012;73.474;2023-05-21T16:38:34;60.50;48.00;31.00
75385;PMS5003;64239;55.012;73.474;2023-05-21T16:41:00;72.75;55.50;33.00
75385;PMS5003;64239;55.012;73.474;2023-05-21T16:43:26;52.00;41.75;27.00
75385;PMS5003;64239;55.012;73.474;2023-05-21T16:45:52;61.75;48.00;29.00
75385;PMS5003;64239;55.012;73.474;2023-05-21T16:48:17;51.75;41.00;27.00
75385;PMS5003;64239;55.012;73.474;2023-05-21T16:50:43;51.00;41.00;27.00
75385;PMS5003;64239;55.012;73.474;2023-05-21T16:53:11;40.50;33.50;21.75
75385;PMS5003;64239;55.012;73.474;2023-05-21T16:55:37;37.50;31.25;19.75
75385;PMS5003;64239;55.012;73.474;2023-05-21T16:58:03;36.50;30.50;19.50
75385;PMS5003;64239;55.012;73.474;2023-05-21T17:00:30;35.25;29.00;18.50
75385;PMS5003;64239;55.012;73.474;2023-05-21T17:02:56;35.25;28.50;19.00
75385;PMS5003;64239;55.012;73.474;2023-05-21T17:05:22;31.75;26.75;16.75
75385;PMS5003;64239;55.012;73.474;2023-05-21T17:07:48;29.75;24.75;16.00
75385;PMS5003;64239;55.012;73.474;2023-05-21T17:10:14;29.00;24.00;15.75
75385;PMS5003;64239;55.012;73.474;2023-05-21T17:12:40;27.50;23.75;15.00
75385;PMS5003;64239;55.012;73.474;2023-05-21T17:15:06;26.75;23.75;16.00
75385;PMS5003;64239;55.012;73.474;2023-05-21T17:17:32;26.50;23.50;16.00
75385;PMS5003;64239;55.012;73.474;2023-05-21T17:19:59;26.00;21.25;14.50
75385;PMS5003;64239;55.012;73.474;2023-05-21T17:22:25;24.50;21.00;13.50
75385;PMS5003;64239;55.012;73.474;2023-05-21T17:24:51;25.50;22.25;14.00
75385;PMS5003;64239;55.012;73.474;2023-05-21T17:27:17;23.50;21.00;13.00
75385;PMS5003;64239;55.012;73.474;2023-05-21T17:29:43;24.25;21.50;13.75
75385;PMS5003;64239;55.012;73.474;2023-05-21T17:32:09;22.25;19.50;13.25
75385;PMS5003;64239;55.012;73.474;2023-05-21T17:34:35;23.00;20.00;13.00
75385;PMS5003;64239;55.012;73.474;2023-05-21T17:37:01;24.50;21.50;13.00
75385;PMS5003;64239;55.012;73.474;2023-05-21T17:39:27;23.25;21.00;12.50
75385;PMS5003;64239;55.012;73.474;2023-05-21T17:41:53;24.50;21.75;14.00
75385;PMS5003;64239;55.012;73.474;2023-05-21T17:44:19;25.25;22.25;14.00
75385;PMS5003;64239;55.012;73.474;2023-05-21T17:46:47;26.00;22.00;14.00
75385;PMS5003;64239;55.012;73.474;2023-05-21T17:49:13;27.25;23.00;15.50
75385;PMS5003;64239;55.012;73.474;2023-05-21T17:51:39;26.50;22.25;13.75
75385;PMS5003;64239;55.012;73.474;2023-05-21T17:54:05;25.50;22.25;14.00
75385;PMS5003;64239;55.012;73.474;2023-05-21T17:56:34;25.75;21.25;14.00
75385;PMS5003;64239;55.012;73.474;2023-05-21T17:59:04;25.50;22.25;13.75
75385;PMS5003;64239;55.012;73.474;2023-05-21T18:01:31;27.75;22.50;14.00
75385;PMS5003;64239;55.012;73.474;2023-05-21T18:03:57;28.25;23.75;14.00
75385;PMS5003;64239;55.012;73.474;2023-05-21T18:06:23;24.00;20.50;12.75
75385;PMS5003;64239;55.012;73.474;2023-05-21T18:08:49;24.25;21.00;12.00
75385;PMS5003;64239;55.012;73.474;2023-05-21T18:11:15;23.50;20.75;13.00
75385;PMS5003;64239;55.012;73.474;2023-05-21T18:13:41;24.25;21.25;13.00
75385;PMS5003;64239;55.012;73.474;2023-05-21T18:16:07;24.25;21.00;13.00
75385;PMS5003;64239;55.012;73.474;2023-05-21T18:18:33;23.25;19.50;13.75
75385;PMS5003;64239;55.012;73.474;2023-05-21T18:20:58;23.00;20.50;13.00
75385;PMS5003;64239;55.012;73.474;2023-05-21T18:23:25;22.25;18.50;12.00
75385;PMS5003;64239;55.012;73.474;2023-05-21T18:25:51;21.75;19.00;12.25
75385;PMS5003;64239;55.012;73.474;2023-05-21T18:28:17;21.00;18.75;12.50
75385;PMS5003;64239;55.012;73.474;2023-05-21T18:30:42;20.00;18.00;12.00
75385;PMS5003;64239;55.012;73.474;2023-05-21T18:33:08;21.00;19.25;12.00
75385;PMS5003;64239;55.012;73.474;2023-05-21T18:35:37;20.75;18.50;12.00
75385;PMS5003;64239;55.012;73.474;2023-05-21T18:38:04;19.50;16.75;10.50
75385;PMS5003;64239;55.012;73.474;2023-05-21T18:40:37;19.25;17.00;11.75
75385;PMS5003;64239;55.012;73.474;2023-05-21T18:43:03;20.50;18.00;13.00
75385;PMS5003;64239;55.012;73.474;2023-05-21T18:45:31;18.00;16.00;10.75
75385;PMS5003;64239;55.012;73.474;2023-05-21T18:47:57;19.00;16.00;10.00
75385;PMS5003;64239;55.012;73.474;2023-05-21T18:50:23;20.00;17.50;12.00
75385;PMS5003;64239;55.012;73.474;2023-05-21T18:52:49;17.75;16.00;10.50
75385;PMS5003;64239;55.012;73.474;2023-05-21T18:55:20;18.00;16.00;10.00
75385;PMS5003;64239;55.012;73.474;2023-05-21T18:57:46;17.75;15.25;10.00
75385;PMS5003;64239;55.012;73.474;2023-05-21T19:00:12;17.25;15.75;10.00
75385;PMS5003;64239;55.012;73.474;2023-05-21T19:02:38;19.00;16.00;9.00
75385;PMS5003;64239;55.012;73.474;2023-05-21T19:05:08;17.00;15.75;9.75
75385;PMS5003;64239;55.012;73.474;2023-05-21T19:07:34;21.00;18.00;12.00
75385;PMS5003;64239;55.012;73.474;2023-05-21T19:10:01;17.00;15.00;9.00
75385;PMS5003;64239;55.012;73.474;2023-05-21T19:12:26;18.75;15.75;10.00
75385;PMS5003;64239;55.012;73.474;2023-05-21T19:14:55;16.00;14.50;10.00
75385;PMS5003;64239;55.012;73.474;2023-05-21T19:17:21;14.25;13.25;8.75
75385;PMS5003;64239;55.012;73.474;2023-05-21T19:19:47;14.75;13.25;9.00
75385;PMS5003;64239;55.012;73.474;2023-05-21T19:22:21;14.00;12.25;9.00
75385;PMS5003;64239;55.012;73.474;2023-05-21T19:24:47;14.75;11.50;8.00
75385;PMS5003;64239;55.012;73.474;2023-05-21T19:27:13;17.00;14.50;9.00
75385;PMS5003;64239;55.012;73.474;2023-05-21T19:29:39;16.50;15.00;9.75
75385;PMS5003;64239;55.012;73.474;2023-05-21T19:32:05;14.00;12.25;8.25
75385;PMS5003;64239;55.012;73.474;2023-05-21T19:34:31;13.00;12.50;8.50
75385;PMS5003;64239;55.012;73.474;2023-05-21T19:36:57;13.75;12.75;8.00
75385;PMS5003;64239;55.012;73.474;2023-05-21T19:39:23;16.00;14.00;8.25
75385;PMS5003;64239;55.012;73.474;2023-05-21T19:41:49;13.75;12.75;8.00
75385;PMS5003;64239;55.012;73.474;2023-05-21T19:44:17;13.75;12.75;8.00
75385;PMS5003;64239;55.012;73.474;2023-05-21T19:46:43;15.25;13.25;8.00
75385;PMS5003;64239;55.012;73.474;2023-05-21T19:49:09;12.00;11.00;7.00
75385;PMS5003;64239;55.012;73.474;2023-05-21T19:51:35;23.25;18.75;11.25
75385;PMS5003;64239;55.012;73.474;2023-05-21T19:54:01;13.50;12.00;7.75
75385;PMS5003;64239;55.012;73.474;2023-05-21T19:56:27;12.00;10.50;7.00
75385;PMS5003;64239;55.012;73.474;2023-05-21T19:58:53;13.25;11.50;7.50
75385;PMS5003;64239;55.012;73.474;2023-05-21T20:01:19;14.00;12.00;8.00
75385;PMS5003;64239;55.012;73.474;2023-05-21T20:03:46;13.00;11.75;7.50
75385;PMS5003;64239;55.012;73.474;2023-05-21T20:06:12;13.00;12.00;7.50
75385;PMS5003;64239;55.012;73.474;2023-05-21T20:08:39;11.00;10.00;7.00
75385;PMS5003;64239;55.012;73.474;2023-05-21T20:11:06;12.00;10.00;7.00
75385;PMS5003;64239;55.012;73.474;2023-05-21T20:13:32;12.00;10.75;7.00
75385;PMS5003;64239;55.012;73.474;2023-05-21T20:15:58;10.25;10.00;7.00
75385;PMS5003;64239;55.012;73.474;2023-05-21T20:18:24;13.25;10.25;6.25
75385;PMS5003;64239;55.012;73.474;2023-05-21T20:20:50;10.00;9.25;6.00
75385;PMS5003;64239;55.012;73.474;2023-05-21T20:23:16;11.00;10.50;6.25
75385;PMS5003;64239;55.012;73.474;2023-05-21T20:25:43;11.00;9.75;6.75
75385;PMS5003;64239;55.012;73.474;2023-05-21T20:28:09;14.00;12.75;7.50
75385;PMS5003;64239;55.012;73.474;2023-05-21T20:30:49;11.75;10.00;6.00
75385;PMS5003;64239;55.012;73.474;2023-05-21T20:33:16;9.75;9.00;6.00
75385;PMS5003;64239;55.012;73.474;2023-05-21T20:35:42;11.00;9.00;6.00
75385;PMS5003;64239;55.012;73.474;2023-05-21T20:38:08;10.00;8.75;6.00
75385;PMS5003;64239;55.012;73.474;2023-05-21T20:40:33;10.00;9.00;6.00
75385;PMS5003;64239;55.012;73.474;2023-05-21T20:42:59;10.00;9.00;6.00
75385;PMS5003;64239;55.012;73.474;2023-05-21T20:45:26;22.50;18.00;10.50
75385;PMS5003;64239;55.012;73.474;2023-05-21T20:47:54;12.00;11.00;8.00
75385;PMS5003;64239;55.012;73.474;2023-05-21T20:50:23;11.00;10.00;7.00
75385;PMS5003;64239;55.012;73.474;2023-05-21T20:52:50;11.00;9.00;6.00
75385;PMS5003;64239;55.012;73.474;2023-05-21T20:55:16;11.00;10.25;7.00
75385;PMS5003;64239;55.012;73.474;2023-05-21T20:57:42;10.00;9.00;6.00
75385;PMS5003;64239;55.012;73.474;2023-05-21T21:00:08;11.25;10.25;7.00
75385;PMS5003;64239;55.012;73.474;2023-05-21T21:02:55;10.00;9.00;6.00
75385;PMS5003;64239;55.012;73.474;2023-05-21T21:05:22;9.75;9.25;6.25
75385;PMS5003;64239;55.012;73.474;2023-05-21T21:07:48;11.75;11.00;7.00
75385;PMS5003;64239;55.012;73.474;2023-05-21T21:10:15;10.50;9.50;6.25
75385;PMS5003;64239;55.012;73.474;2023-05-21T21:12:41;9.75;9.50;6.50
75385;PMS5003;64239;55.012;73.474;2023-05-21T21:15:12;11.00;10.00;6.50
75385;PMS5003;64239;55.012;73.474;2023-05-21T21:17:38;11.50;10.50;6.50
75385;PMS5003;64239;55.012;73.474;2023-05-21T21:20:04;17.25;13.75;8.00
75385;PMS5003;64239;55.012;73.474;2023-05-21T21:22:32;11.00;11.00;7.00
75385;PMS5003;64239;55.012;73.474;2023-05-21T21:24:58;11.75;10.00;6.50
75385;PMS5003;64239;55.012;73.474;2023-05-21T21:27:24;12.50;10.75;7.00
75385;PMS5003;64239;55.012;73.474;2023-05-21T21:29:50;14.00;13.00;8.50
75385;PMS5003;64239;55.012;73.474;2023-05-21T21:32:16;16.00;14.50;9.50
75385;PMS5003;64239;55.012;73.474;2023-05-21T21:34:42;28.00;23.75;14.00
75385;PMS5003;64239;55.012;73.474;2023-05-21T21:37:08;28.25;24.50;15.50
75385;PMS5003;64239;55.012;73.474;2023-05-21T21:39:34;33.00;27.50;18.75
75385;PMS5003;64239;55.012;73.474;2023-05-21T21:42:00;39.25;32.50;21.25
75385;PMS5003;64239;55.012;73.474;2023-05-21T21:44:26;44.00;36.50;22.75
75385;PMS5003;64239;55.012;73.474;2023-05-21T21:46:52;48.00;38.00;24.75
75385;PMS5003;64239;55.012;73.474;2023-05-21T21:49:18;52.25;42.00;26.50
75385;PMS5003;64239;55.012;73.474;2023-05-21T21:51:44;53.00;42.00;26.50
75385;PMS5003;64239;55.012;73.474;2023-05-21T21:54:10;54.75;42.75;26.00
75385;PMS5003;64239;55.012;73.474;2023-05-21T21:56:36;52.00;41.25;26.25
75385;PMS5003;64239;55.012;73.474;2023-05-21T21:59:02;53.00;42.50;27.00
75385;PMS5003;64239;55.012;73.474;2023-05-21T22:01:28;51.75;42.00;25.75
75385;PMS5003;64239;55.012;73.474;2023-05-21T22:03:54;50.00;39.50;25.00
75385;PMS5003;64239;55.012;73.474;2023-05-21T22:06:20;50.00;40.00;25.25
75385;PMS5003;64239;55.012;73.474;2023-05-21T22:08:46;50.50;40.50;25.00
75385;PMS5003;64239;55.012;73.474;2023-05-21T22:11:11;50.25;40.25;24.75
75385;PMS5003;64239;55.012;73.474;2023-05-21T22:13:37;46.00;36.50;23.00
75385;PMS5003;64239;55.012;73.474;2023-05-21T22:16:06;45.50;37.50;23.75
75385;PMS5003;64239;55.012;73.474;2023-05-21T22:18:32;44.50;36.50;22.75
75385;PMS5003;64239;55.012;73.474;2023-05-21T22:20:58;42.75;34.50;22.00
75385;PMS5003;64239;55.012;73.474;2023-05-21T22:23:24;51.00;40.00;24.00
75385;PMS5003;64239;55.012;73.474;2023-05-21T22:26:00;41.75;34.50;22.25
75385;PMS5003;64239;55.012;73.474;2023-05-21T22:28:26;41.00;33.00;20.50
75385;PMS5003;64239;55.012;73.474;2023-05-21T22:30:52;39.75;32.50;20.00
75385;PMS5003;64239;55.012;73.474;2023-05-21T22:33:18;37.50;31.25;20.25
75385;PMS5003;64239;55.012;73.474;2023-05-21T22:35:45;49.50;38.50;23.25
75385;PMS5003;64239;55.012;73.474;2023-05-21T22:38:11;42.50;33.50;21.00
75385;PMS5003;64239;55.012;73.474;2023-05-21T22:40:37;39.50;31.50;20.50
75385;PMS5003;64239;55.012;73.474;2023-05-21T22:43:03;42.25;33.00;21.00
75385;PMS5003;64239;55.012;73.474;2023-05-21T22:45:29;37.50;30.75;19.75
75385;PMS5003;64239;55.012;73.474;2023-05-21T22:47:56;38.25;31.00;18.75
75385;PMS5003;64239;55.012;73.474;2023-05-21T22:50:25;37.25;29.50;19.00
75385;PMS5003;64239;55.012;73.474;2023-05-21T22:52:53;36.75;29.25;18.75
75385;PMS5003;64239;55.012;73.474;2023-05-21T22:55:19;38.25;30.50;19.25
75385;PMS5003;64239;55.012;73.474;2023-05-21T22:57:45;38.00;30.50;18.50
75385;PMS5003;64239;55.012;73.474;2023-05-21T23:00:11;36.25;28.50;17.25
75385;PMS5003;64239;55.012;73.474;2023-05-21T23:02:37;33.50;27.50;17.00
75385;PMS5003;64239;55.012;73.474;2023-05-21T23:05:04;34.00;27.75;17.00
75385;PMS5003;64239;55.012;73.474;2023-05-21T23:07:30;34.75;28.00;18.00
75385;PMS5003;64239;55.012;73.474;2023-05-21T23:09:56;33.75;27.50;16.75
75385;PMS5003;64239;55.012;73.474;2023-05-21T23:12:25;31.00;26.00;17.00
75385;PMS5003;64239;55.012;73.474;2023-05-21T23:14:51;33.00;27.00;15.75
75385;PMS5003;64239;55.012;73.474;2023-05-21T23:17:17;33.00;26.00;16.00
75385;PMS5003;64239;55.012;73.474;2023-05-21T23:19:43;36.00;29.00;17.00
75385;PMS5003;64239;55.012;73.474;2023-05-21T23:22:09;28.25;24.00;16.00
75385;PMS5003;64239;55.012;73.474;2023-05-21T23:24:35;31.25;25.00;15.00
75385;PMS5003;64239;55.012;73.474;2023-05-21T23:27:01;31.75;26.00;16.00
75385;PMS5003;64239;55.012;73.474;2023-05-21T23:29:28;29.75;25.00;15.00
75385;PMS5003;64239;55.012;73.474;2023-05-21T23:31:54;29.00;24.00;15.75
75385;PMS5003;64239;55.012;73.474;2023-05-21T23:34:20;30.75;25.00;15.75
75385;PMS5003;64239;55.012;73.474;2023-05-21T23:36:48;30.25;25.00;16.00
75385;PMS5003;64239;55.012;73.474;2023-05-21T23:39:14;27.75;23.50;15.25
75385;PMS5003;64239;55.012;73.474;2023-05-21T23:41:40;28.00;23.00;14.00
75385;PMS5003;64239;55.012;73.474;2023-05-21T23:44:06;26.50;22.50;14.75
75385;PMS5003;64239;55.012;73.474;2023-05-21T23:46:31;26.50;22.00;14.00
75385;PMS5003;64239;55.012;73.474;2023-05-21T23:48:57;24.25;20.50;12.75
75385;PMS5003;64239;55.012;73.474;2023-05-21T23:51:23;28.00;23.00;13.50
75385;PMS5003;64239;55.012;73.474;2023-05-21T23:53:49;26.00;22.25;14.00
75385;PMS5003;64239;55.012;73.474;2023-05-21T23:56:15;25.75;22.75;14.00
75385;PMS5003;64239;55.012;73.474;2023-05-21T23:58:44;24.25;20.75;13.00
